sensor_id;sensor_type;location;lat;lon;timestamp;P1;durP1;ratioP1;P2;durP2;ratioP2
76640;SDS011;65538;50.798;6.064;2023-12-20T00:08:50;27.70;;;11.07;;
76640;SDS011;65538;50.798;6.064;2023-12-20T00:11:15;26.65;;;10.63;;
76640;SDS011;65538;50.798;6.064;2023-12-20T00:19:31;14.55;;;5.20;;
76640;SDS011;65538;50.798;6.064;2023-12-20T00:22:08;15.50;;;7.57;;
76640;SDS011;65538;50.798;6.064;2023-12-20T00:24:52;21.30;;;7.80;;
76640;SDS011;65538;50.798;6.064;2023-12-20T00:27:23;25.10;;;8.88;;
76640;SDS011;65538;50.798;6.064;2023-12-20T00:36:21;30.65;;;12.25;;
76640;SDS011;65538;50.798;6.064;2023-12-20T00:38:49;45.67;;;18.83;;
76640;SDS011;65538;50.798;6.064;2023-12-20T00:45:10;26.02;;;12.25;;
76640;SDS011;65538;50.798;6.064;2023-12-20T00:56:35;16.95;;;7.72;;
76640;SDS011;65538;50.798;6.064;2023-12-20T01:10:57;23.10;;;5.78;;
76640;SDS011;65538;50.798;6.064;2023-12-20T01:13:43;13.23;;;4.85;;
76640;SDS011;65538;50.798;6.064;2023-12-20T01:16:24;16.80;;;4.55;;
76640;SDS011;65538;50.798;6.064;2023-12-20T01:19:01;17.63;;;4.55;;
76640;SDS011;65538;50.798;6.064;2023-12-20T01:24:39;14.57;;;3.80;;
76640;SDS011;65538;50.798;6.064;2023-12-20T01:27:16;16.15;;;4.35;;
76640;SDS011;65538;50.798;6.064;2023-12-20T01:30:05;12.90;;;3.40;;
76640;SDS011;65538;50.798;6.064;2023-12-20T01:32:52;15.02;;;3.80;;
76640;SDS011;65538;50.798;6.064;2023-12-20T01:35:54;15.90;;;4.05;;
76640;SDS011;65538;50.798;6.064;2023-12-20T01:38:20;17.63;;;4.32;;
76640;SDS011;65538;50.798;6.064;2023-12-20T01:40:52;15.73;;;4.22;;
76640;SDS011;65538;50.798;6.064;2023-12-20T01:46:02;16.65;;;4.40;;
76640;SDS011;65538;50.798;6.064;2023-12-20T01:48:36;13.73;;;3.85;;
76640;SDS011;65538;50.798;6.064;2023-12-20T01:51:09;9.00;;;3.70;;
76640;SDS011;65538;50.798;6.064;2023-12-20T01:53:49;14.07;;;3.78;;
76640;SDS011;65538;50.798;6.064;2023-12-20T01:56:24;19.67;;;3.40;;
76640;SDS011;65538;50.798;6.064;2023-12-20T02:01:40;16.30;;;3.20;;
76640;SDS011;65538;50.798;6.064;2023-12-20T02:04:08;18.53;;;3.50;;
76640;SDS011;65538;50.798;6.064;2023-12-20T02:06:46;12.93;;;3.28;;
76640;SDS011;65538;50.798;6.064;2023-12-20T02:09:11;20.40;;;3.58;;
76640;SDS011;65538;50.798;6.064;2023-12-20T02:11:55;10.57;;;2.45;;
76640;SDS011;65538;50.798;6.064;2023-12-20T02:14:23;17.38;;;2.80;;
76640;SDS011;65538;50.798;6.064;2023-12-20T02:17:00;12.25;;;2.05;;
76640;SDS011;65538;50.798;6.064;2023-12-20T02:19:30;13.88;;;2.83;;
76640;SDS011;65538;50.798;6.064;2023-12-20T03:21:57;13.38;;;3.33;;
76640;SDS011;65538;50.798;6.064;2023-12-20T03:24:30;10.52;;;3.30;;
76640;SDS011;65538;50.798;6.064;2023-12-20T03:27:01;19.35;;;4.60;;
76640;SDS011;65538;50.798;6.064;2023-12-20T03:29:44;16.70;;;4.40;;
76640;SDS011;65538;50.798;6.064;2023-12-20T03:32:32;22.33;;;6.45;;
76640;SDS011;65538;50.798;6.064;2023-12-20T03:35:13;17.05;;;4.60;;
76640;SDS011;65538;50.798;6.064;2023-12-20T03:37:41;10.55;;;4.25;;
76640;SDS011;65538;50.798;6.064;2023-12-20T03:40:18;20.50;;;5.22;;
76640;SDS011;65538;50.798;6.064;2023-12-20T03:43:10;10.13;;;2.78;;
76640;SDS011;65538;50.798;6.064;2023-12-20T03:46:12;10.02;;;3.25;;
76640;SDS011;65538;50.798;6.064;2023-12-20T03:48:45;14.07;;;5.30;;
76640;SDS011;65538;50.798;6.064;2023-12-20T03:51:13;22.58;;;5.00;;
76640;SDS011;65538;50.798;6.064;2023-12-20T03:53:38;18.17;;;4.13;;
76640;SDS011;65538;50.798;6.064;2023-12-20T03:56:08;13.52;;;4.13;;
76640;SDS011;65538;50.798;6.064;2023-12-20T03:58:36;11.15;;;3.53;;
76640;SDS011;65538;50.798;6.064;2023-12-20T04:01:01;21.02;;;4.97;;
76640;SDS011;65538;50.798;6.064;2023-12-20T04:03:32;18.48;;;4.68;;
76640;SDS011;65538;50.798;6.064;2023-12-20T04:05:58;21.67;;;5.22;;
76640;SDS011;65538;50.798;6.064;2023-12-20T04:08:23;21.73;;;4.72;;
76640;SDS011;65538;50.798;6.064;2023-12-20T04:10:54;15.18;;;4.55;;
76640;SDS011;65538;50.798;6.064;2023-12-20T04:13:23;15.65;;;4.40;;
76640;SDS011;65538;50.798;6.064;2023-12-20T04:15:48;15.83;;;5.30;;
76640;SDS011;65538;50.798;6.064;2023-12-20T04:18:23;22.15;;;3.97;;
76640;SDS011;65538;50.798;6.064;2023-12-20T04:20:49;19.23;;;4.85;;
76640;SDS011;65538;50.798;6.064;2023-12-20T04:23:20;13.80;;;2.92;;
76640;SDS011;65538;50.798;6.064;2023-12-20T04:25:51;14.60;;;3.15;;
76640;SDS011;65538;50.798;6.064;2023-12-20T04:28:39;21.27;;;4.40;;
76640;SDS011;65538;50.798;6.064;2023-12-20T04:31:09;13.35;;;3.40;;
76640;SDS011;65538;50.798;6.064;2023-12-20T04:33:43;12.57;;;3.20;;
76640;SDS011;65538;50.798;6.064;2023-12-20T04:36:12;14.57;;;4.40;;
76640;SDS011;65538;50.798;6.064;2023-12-20T04:38:43;11.93;;;2.80;;
76640;SDS011;65538;50.798;6.064;2023-12-20T04:41:32;15.05;;;3.30;;
76640;SDS011;65538;50.798;6.064;2023-12-20T04:44:02;14.93;;;3.65;;
76640;SDS011;65538;50.798;6.064;2023-12-20T04:46:35;13.45;;;3.45;;
76640;SDS011;65538;50.798;6.064;2023-12-20T04:49:06;16.27;;;4.45;;
76640;SDS011;65538;50.798;6.064;2023-12-20T04:51:35;12.95;;;2.33;;
76640;SDS011;65538;50.798;6.064;2023-12-20T04:54:00;22.63;;;4.55;;
76640;SDS011;65538;50.798;6.064;2023-12-20T04:56:26;15.57;;;3.72;;
76640;SDS011;65538;50.798;6.064;2023-12-20T04:58:51;23.33;;;4.40;;
76640;SDS011;65538;50.798;6.064;2023-12-20T05:01:16;13.93;;;3.17;;
76640;SDS011;65538;50.798;6.064;2023-12-20T05:03:42;16.00;;;3.70;;
76640;SDS011;65538;50.798;6.064;2023-12-20T05:06:07;19.00;;;4.03;;
76640;SDS011;65538;50.798;6.064;2023-12-20T05:08:33;12.90;;;3.50;;
76640;SDS011;65538;50.798;6.064;2023-12-20T05:10:58;20.70;;;4.57;;
76640;SDS011;65538;50.798;6.064;2023-12-20T05:13:23;16.60;;;3.78;;
76640;SDS011;65538;50.798;6.064;2023-12-20T05:15:48;10.80;;;3.47;;
76640;SDS011;65538;50.798;6.064;2023-12-20T05:18:14;5.53;;;1.93;;
76640;SDS011;65538;50.798;6.064;2023-12-20T05:20:41;11.38;;;3.60;;
76640;SDS011;65538;50.798;6.064;2023-12-20T05:23:07;20.13;;;4.20;;
76640;SDS011;65538;50.798;6.064;2023-12-20T05:25:33;19.35;;;4.75;;
76640;SDS011;65538;50.798;6.064;2023-12-20T05:27:58;16.92;;;4.55;;
76640;SDS011;65538;50.798;6.064;2023-12-20T05:30:24;20.77;;;4.93;;
76640;SDS011;65538;50.798;6.064;2023-12-20T05:32:49;17.23;;;6.22;;
76640;SDS011;65538;50.798;6.064;2023-12-20T05:35:14;13.30;;;3.87;;
76640;SDS011;65538;50.798;6.064;2023-12-20T05:37:40;20.42;;;4.57;;
76640;SDS011;65538;50.798;6.064;2023-12-20T05:40:05;13.52;;;4.60;;
76640;SDS011;65538;50.798;6.064;2023-12-20T05:42:31;16.48;;;5.00;;
76640;SDS011;65538;50.798;6.064;2023-12-20T05:44:56;15.07;;;4.77;;
76640;SDS011;65538;50.798;6.064;2023-12-20T05:47:21;18.20;;;4.22;;
76640;SDS011;65538;50.798;6.064;2023-12-20T05:49:47;12.73;;;3.65;;
76640;SDS011;65538;50.798;6.064;2023-12-20T05:52:12;22.13;;;5.73;;
76640;SDS011;65538;50.798;6.064;2023-12-20T05:54:38;15.70;;;4.00;;
76640;SDS011;65538;50.798;6.064;2023-12-20T05:57:03;12.97;;;4.60;;
76640;SDS011;65538;50.798;6.064;2023-12-20T05:59:28;18.40;;;4.72;;
76640;SDS011;65538;50.798;6.064;2023-12-20T06:01:54;15.15;;;3.97;;
76640;SDS011;65538;50.798;6.064;2023-12-20T06:04:19;12.73;;;4.00;;
76640;SDS011;65538;50.798;6.064;2023-12-20T06:06:44;19.50;;;5.50;;
76640;SDS011;65538;50.798;6.064;2023-12-20T06:09:10;18.80;;;4.53;;
76640;SDS011;65538;50.798;6.064;2023-12-20T06:11:35;18.50;;;4.80;;
76640;SDS011;65538;50.798;6.064;2023-12-20T06:14:00;18.73;;;4.67;;
76640;SDS011;65538;50.798;6.064;2023-12-20T06:16:26;19.40;;;3.90;;
76640;SDS011;65538;50.798;6.064;2023-12-20T06:18:51;14.43;;;3.80;;
76640;SDS011;65538;50.798;6.064;2023-12-20T06:21:16;16.50;;;4.60;;
76640;SDS011;65538;50.798;6.064;2023-12-20T06:23:41;21.50;;;5.10;;
76640;SDS011;65538;50.798;6.064;2023-12-20T06:26:07;16.97;;;5.13;;
76640;SDS011;65538;50.798;6.064;2023-12-20T06:28:32;22.00;;;4.67;;
76640;SDS011;65538;50.798;6.064;2023-12-20T06:30:57;16.90;;;3.67;;
76640;SDS011;65538;50.798;6.064;2023-12-20T06:33:23;12.57;;;3.97;;
76640;SDS011;65538;50.798;6.064;2023-12-20T06:35:49;11.93;;;3.72;;
76640;SDS011;65538;50.798;6.064;2023-12-20T06:38:14;11.37;;;2.80;;
76640;SDS011;65538;50.798;6.064;2023-12-20T06:40:39;15.40;;;4.70;;
76640;SDS011;65538;50.798;6.064;2023-12-20T06:43:04;11.17;;;3.20;;
76640;SDS011;65538;50.798;6.064;2023-12-20T06:45:31;16.85;;;4.50;;
76640;SDS011;65538;50.798;6.064;2023-12-20T06:47:57;10.48;;;3.15;;
76640;SDS011;65538;50.798;6.064;2023-12-20T06:50:22;17.83;;;4.40;;
76640;SDS011;65538;50.798;6.064;2023-12-20T06:52:47;13.70;;;3.43;;
76640;SDS011;65538;50.798;6.064;2023-12-20T06:55:12;16.05;;;4.93;;
76640;SDS011;65538;50.798;6.064;2023-12-20T06:57:38;20.53;;;4.90;;
76640;SDS011;65538;50.798;6.064;2023-12-20T07:00:03;22.83;;;6.40;;
76640;SDS011;65538;50.798;6.064;2023-12-20T07:02:29;19.60;;;4.57;;
76640;SDS011;65538;50.798;6.064;2023-12-20T07:04:58;19.13;;;4.30;;
76640;SDS011;65538;50.798;6.064;2023-12-20T07:07:49;24.35;;;6.25;;
76640;SDS011;65538;50.798;6.064;2023-12-20T07:10:39;23.88;;;3.95;;
76640;SDS011;65538;50.798;6.064;2023-12-20T07:13:04;22.05;;;5.15;;
76640;SDS011;65538;50.798;6.064;2023-12-20T07:15:33;18.10;;;5.40;;
76640;SDS011;65538;50.798;6.064;2023-12-20T07:18:27;21.80;;;6.68;;
76640;SDS011;65538;50.798;6.064;2023-12-20T07:20:55;13.77;;;4.03;;
76640;SDS011;65538;50.798;6.064;2023-12-20T07:23:30;22.30;;;5.55;;
76640;SDS011;65538;50.798;6.064;2023-12-20T07:26:12;19.95;;;5.88;;
76640;SDS011;65538;50.798;6.064;2023-12-20T07:28:51;21.63;;;6.00;;
76640;SDS011;65538;50.798;6.064;2023-12-20T07:31:30;11.88;;;3.75;;
76640;SDS011;65538;50.798;6.064;2023-12-20T07:40:04;15.05;;;4.85;;
76640;SDS011;65538;50.798;6.064;2023-12-20T07:42:56;23.75;;;6.20;;
76640;SDS011;65538;50.798;6.064;2023-12-20T07:48:56;20.95;;;5.80;;
76640;SDS011;65538;50.798;6.064;2023-12-20T07:51:39;15.07;;;5.10;;
76640;SDS011;65538;50.798;6.064;2023-12-20T07:54:22;12.35;;;4.88;;
76640;SDS011;65538;50.798;6.064;2023-12-20T07:57:22;19.35;;;5.05;;
76640;SDS011;65538;50.798;6.064;2023-12-20T07:59:50;13.52;;;3.65;;
76640;SDS011;65538;50.798;6.064;2023-12-20T08:02:16;12.57;;;4.07;;
76640;SDS011;65538;50.798;6.064;2023-12-20T08:05:07;10.57;;;3.13;;
76640;SDS011;65538;50.798;6.064;2023-12-20T08:07:38;15.90;;;4.82;;
76640;SDS011;65538;50.798;6.064;2023-12-20T08:10:20;14.02;;;4.38;;
76640;SDS011;65538;50.798;6.064;2023-12-20T08:12:56;15.77;;;4.35;;
76640;SDS011;65538;50.798;6.064;2023-12-20T08:15:34;20.05;;;4.50;;
76640;SDS011;65538;50.798;6.064;2023-12-20T08:20:56;20.77;;;4.93;;
76640;SDS011;65538;50.798;6.064;2023-12-20T08:23:30;20.38;;;4.50;;
76640;SDS011;65538;50.798;6.064;2023-12-20T08:25:55;18.40;;;5.28;;
76640;SDS011;65538;50.798;6.064;2023-12-20T08:34:14;11.95;;;3.72;;
76640;SDS011;65538;50.798;6.064;2023-12-20T08:36:56;16.35;;;3.80;;
76640;SDS011;65538;50.798;6.064;2023-12-20T08:39:39;15.65;;;3.80;;
76640;SDS011;65538;50.798;6.064;2023-12-20T08:42:08;14.85;;;4.20;;
76640;SDS011;65538;50.798;6.064;2023-12-20T08:47:40;12.45;;;3.47;;
76640;SDS011;65538;50.798;6.064;2023-12-20T08:50:11;12.95;;;3.38;;
76640;SDS011;65538;50.798;6.064;2023-12-20T08:56:02;15.00;;;4.00;;
76640;SDS011;65538;50.798;6.064;2023-12-20T09:04:40;13.43;;;3.50;;
76640;SDS011;65538;50.798;6.064;2023-12-20T09:07:35;11.10;;;2.67;;
76640;SDS011;65538;50.798;6.064;2023-12-20T09:10:11;10.52;;;2.58;;
76640;SDS011;65538;50.798;6.064;2023-12-20T09:16:34;15.88;;;3.42;;
76640;SDS011;65538;50.798;6.064;2023-12-20T09:26:13;9.63;;;2.33;;
76640;SDS011;65538;50.798;6.064;2023-12-20T09:28:28;15.48;;;3.88;;
76640;SDS011;65538;50.798;6.064;2023-12-20T09:31:35;12.27;;;3.92;;
76640;SDS011;65538;50.798;6.064;2023-12-20T09:37:39;12.50;;;2.55;;
76640;SDS011;65538;50.798;6.064;2023-12-20T09:40:22;14.75;;;3.13;;
76640;SDS011;65538;50.798;6.064;2023-12-20T10:04:28;13.68;;;2.75;;
76640;SDS011;65538;50.798;6.064;2023-12-20T10:07:27;12.13;;;3.08;;
76640;SDS011;65538;50.798;6.064;2023-12-20T10:10:09;12.10;;;3.35;;
76640;SDS011;65538;50.798;6.064;2023-12-20T10:12:42;18.83;;;3.72;;
76640;SDS011;65538;50.798;6.064;2023-12-20T10:21:37;11.50;;;3.10;;
76640;SDS011;65538;50.798;6.064;2023-12-20T10:27:42;17.08;;;3.55;;
76640;SDS011;65538;50.798;6.064;2023-12-20T10:33:15;14.32;;;3.20;;
76640;SDS011;65538;50.798;6.064;2023-12-20T10:39:59;16.63;;;3.85;;
76640;SDS011;65538;50.798;6.064;2023-12-20T10:52:30;13.10;;;3.58;;
76640;SDS011;65538;50.798;6.064;2023-12-20T10:54:57;13.57;;;2.90;;
76640;SDS011;65538;50.798;6.064;2023-12-20T11:00:39;9.27;;;3.00;;
76640;SDS011;65538;50.798;6.064;2023-12-20T11:15:39;15.93;;;3.08;;
76640;SDS011;65538;50.798;6.064;2023-12-20T11:18:37;11.27;;;3.70;;
76640;SDS011;65538;50.798;6.064;2023-12-20T11:21:15;17.42;;;2.78;;
76640;SDS011;65538;50.798;6.064;2023-12-20T11:24:10;12.10;;;2.92;;
76640;SDS011;65538;50.798;6.064;2023-12-20T11:26:55;17.70;;;4.60;;
76640;SDS011;65538;50.798;6.064;2023-12-20T11:29:56;13.77;;;3.25;;
76640;SDS011;65538;50.798;6.064;2023-12-20T11:48:06;11.75;;;3.20;;
76640;SDS011;65538;50.798;6.064;2023-12-20T11:50:58;7.35;;;2.20;;
76640;SDS011;65538;50.798;6.064;2023-12-20T11:54:03;8.85;;;2.63;;
76640;SDS011;65538;50.798;6.064;2023-12-20T11:56:49;13.15;;;3.80;;
76640;SDS011;65538;50.798;6.064;2023-12-20T11:59:40;14.98;;;3.38;;
76640;SDS011;65538;50.798;6.064;2023-12-20T12:05:17;12.20;;;3.42;;
76640;SDS011;65538;50.798;6.064;2023-12-20T12:07:42;11.20;;;3.50;;
76640;SDS011;65538;50.798;6.064;2023-12-20T12:10:16;9.47;;;2.30;;
76640;SDS011;65538;50.798;6.064;2023-12-20T12:15:53;13.77;;;3.08;;
76640;SDS011;65538;50.798;6.064;2023-12-20T12:30:23;15.20;;;3.67;;
76640;SDS011;65538;50.798;6.064;2023-12-20T12:36:46;12.35;;;3.22;;
76640;SDS011;65538;50.798;6.064;2023-12-20T12:39:23;8.35;;;2.35;;
76640;SDS011;65538;50.798;6.064;2023-12-20T12:42:23;15.90;;;2.13;;
76640;SDS011;65538;50.798;6.064;2023-12-20T13:04:12;14.23;;;4.07;;
76640;SDS011;65538;50.798;6.064;2023-12-20T13:07:22;19.92;;;3.78;;
76640;SDS011;65538;50.798;6.064;2023-12-20T13:13:24;13.30;;;3.28;;
76640;SDS011;65538;50.798;6.064;2023-12-20T13:16:00;12.30;;;3.75;;
76640;SDS011;65538;50.798;6.064;2023-12-20T13:18:32;14.52;;;4.80;;
76640;SDS011;65538;50.798;6.064;2023-12-20T13:21:00;18.88;;;4.10;;
76640;SDS011;65538;50.798;6.064;2023-12-20T13:23:44;11.25;;;4.13;;
76640;SDS011;65538;50.798;6.064;2023-12-20T13:26:17;18.23;;;4.65;;
76640;SDS011;65538;50.798;6.064;2023-12-20T13:28:58;13.00;;;3.90;;
76640;SDS011;65538;50.798;6.064;2023-12-20T13:31:37;21.30;;;4.45;;
76640;SDS011;65538;50.798;6.064;2023-12-20T13:37:36;14.07;;;3.42;;
76640;SDS011;65538;50.798;6.064;2023-12-20T13:40:57;9.80;;;3.25;;
76640;SDS011;65538;50.798;6.064;2023-12-20T13:47:03;16.90;;;4.50;;
76640;SDS011;65538;50.798;6.064;2023-12-20T13:49:37;21.10;;;3.90;;
76640;SDS011;65538;50.798;6.064;2023-12-20T13:53:06;20.55;;;5.72;;
76640;SDS011;65538;50.798;6.064;2023-12-20T13:55:56;16.88;;;5.28;;
76640;SDS011;65538;50.798;6.064;2023-12-20T13:58:51;22.42;;;4.70;;
76640;SDS011;65538;50.798;6.064;2023-12-20T14:04:50;15.85;;;5.45;;
76640;SDS011;65538;50.798;6.064;2023-12-20T14:07:21;20.80;;;6.37;;
76640;SDS011;65538;50.798;6.064;2023-12-20T14:09:46;10.20;;;3.30;;
76640;SDS011;65538;50.798;6.064;2023-12-20T14:12:18;13.93;;;3.90;;
76640;SDS011;65538;50.798;6.064;2023-12-20T14:14:45;15.52;;;4.40;;
76640;SDS011;65538;50.798;6.064;2023-12-20T14:17:21;9.60;;;3.22;;
76640;SDS011;65538;50.798;6.064;2023-12-20T14:19:49;12.23;;;3.25;;
76640;SDS011;65538;50.798;6.064;2023-12-20T14:22:20;15.18;;;3.70;;
76640;SDS011;65538;50.798;6.064;2023-12-20T14:24:46;13.75;;;3.88;;
76640;SDS011;65538;50.798;6.064;2023-12-20T14:27:11;16.13;;;5.00;;
76640;SDS011;65538;50.798;6.064;2023-12-20T14:29:36;11.10;;;3.00;;
76640;SDS011;65538;50.798;6.064;2023-12-20T14:32:02;13.35;;;3.58;;
76640;SDS011;65538;50.798;6.064;2023-12-20T14:34:46;14.70;;;3.90;;
76640;SDS011;65538;50.798;6.064;2023-12-20T14:42:50;19.05;;;5.13;;
76640;SDS011;65538;50.798;6.064;2023-12-20T15:09:03;9.85;;;4.25;;
76640;SDS011;65538;50.798;6.064;2023-12-20T15:11:36;18.10;;;4.57;;
76640;SDS011;65538;50.798;6.064;2023-12-20T15:17:03;12.82;;;4.15;;
76640;SDS011;65538;50.798;6.064;2023-12-20T15:19:49;12.75;;;4.43;;
76640;SDS011;65538;50.798;6.064;2023-12-20T15:22:32;10.50;;;4.10;;
76640;SDS011;65538;50.798;6.064;2023-12-20T15:25:02;14.05;;;3.28;;
76640;SDS011;65538;50.798;6.064;2023-12-20T15:27:37;17.70;;;5.57;;
76640;SDS011;65538;50.798;6.064;2023-12-20T15:30:03;14.52;;;3.90;;
76640;SDS011;65538;50.798;6.064;2023-12-20T15:32:48;19.48;;;4.32;;
76640;SDS011;65538;50.798;6.064;2023-12-20T15:35:20;13.65;;;4.45;;
76640;SDS011;65538;50.798;6.064;2023-12-20T15:37:49;12.60;;;3.72;;
76640;SDS011;65538;50.798;6.064;2023-12-20T15:46:50;17.08;;;4.07;;
76640;SDS011;65538;50.798;6.064;2023-12-20T15:52:53;17.50;;;3.65;;
76640;SDS011;65538;50.798;6.064;2023-12-20T15:55:27;13.30;;;3.75;;
76640;SDS011;65538;50.798;6.064;2023-12-20T16:00:57;11.18;;;4.07;;
76640;SDS011;65538;50.798;6.064;2023-12-20T16:03:22;15.00;;;4.47;;
76640;SDS011;65538;50.798;6.064;2023-12-20T16:05:53;16.27;;;3.93;;
76640;SDS011;65538;50.798;6.064;2023-12-20T16:08:40;11.98;;;4.85;;
76640;SDS011;65538;50.798;6.064;2023-12-20T16:11:23;19.35;;;4.55;;
76640;SDS011;65538;50.798;6.064;2023-12-20T16:22:58;18.85;;;4.72;;
76640;SDS011;65538;50.798;6.064;2023-12-20T16:35:09;13.85;;;4.40;;
76640;SDS011;65538;50.798;6.064;2023-12-20T16:38:00;11.52;;;3.60;;
76640;SDS011;65538;50.798;6.064;2023-12-20T16:41:03;21.23;;;4.60;;
76640;SDS011;65538;50.798;6.064;2023-12-20T16:46:40;9.43;;;3.63;;
76640;SDS011;65538;50.798;6.064;2023-12-20T16:52:26;7.03;;;2.33;;
76640;SDS011;65538;50.798;6.064;2023-12-20T16:54:57;13.77;;;3.88;;
76640;SDS011;65538;50.798;6.064;2023-12-20T16:57:47;13.38;;;4.35;;
76640;SDS011;65538;50.798;6.064;2023-12-20T17:00:18;14.63;;;4.00;;
76640;SDS011;65538;50.798;6.064;2023-12-20T17:08:46;13.23;;;3.72;;
76640;SDS011;65538;50.798;6.064;2023-12-20T17:11:37;10.52;;;4.47;;
76640;SDS011;65538;50.798;6.064;2023-12-20T17:17:30;15.30;;;3.67;;
76640;SDS011;65538;50.798;6.064;2023-12-20T17:20:31;10.30;;;3.92;;
76640;SDS011;65538;50.798;6.064;2023-12-20T17:36:22;16.50;;;5.35;;
76640;SDS011;65538;50.798;6.064;2023-12-20T17:39:20;17.23;;;3.80;;
76640;SDS011;65538;50.798;6.064;2023-12-20T17:48:21;18.85;;;3.53;;
76640;SDS011;65538;50.798;6.064;2023-12-20T17:51:18;14.15;;;4.65;;
76640;SDS011;65538;50.798;6.064;2023-12-20T17:53:44;13.65;;;4.25;;
76640;SDS011;65538;50.798;6.064;2023-12-20T18:11:26;11.15;;;3.78;;
76640;SDS011;65538;50.798;6.064;2023-12-20T18:17:19;28.35;;;7.70;;
76640;SDS011;65538;50.798;6.064;2023-12-20T18:20:02;17.75;;;5.95;;
76640;SDS011;65538;50.798;6.064;2023-12-20T18:29:27;12.02;;;4.10;;
76640;SDS011;65538;50.798;6.064;2023-12-20T18:32:27;13.45;;;4.47;;
76640;SDS011;65538;50.798;6.064;2023-12-20T18:34:53;14.57;;;5.10;;
76640;SDS011;65538;50.798;6.064;2023-12-20T18:37:18;16.70;;;4.23;;
76640;SDS011;65538;50.798;6.064;2023-12-20T18:39:43;10.20;;;4.37;;
76640;SDS011;65538;50.798;6.064;2023-12-20T18:42:08;8.27;;;3.27;;
76640;SDS011;65538;50.798;6.064;2023-12-20T18:44:33;13.47;;;4.93;;
76640;SDS011;65538;50.798;6.064;2023-12-20T18:46:59;11.50;;;4.03;;
76640;SDS011;65538;50.798;6.064;2023-12-20T18:49:24;15.40;;;5.97;;
76640;SDS011;65538;50.798;6.064;2023-12-20T18:51:50;10.45;;;4.15;;
76640;SDS011;65538;50.798;6.064;2023-12-20T18:54:15;11.23;;;4.43;;
76640;SDS011;65538;50.798;6.064;2023-12-20T18:56:41;13.55;;;5.30;;
76640;SDS011;65538;50.798;6.064;2023-12-20T18:59:07;14.93;;;5.47;;
76640;SDS011;65538;50.798;6.064;2023-12-20T19:01:33;18.73;;;5.90;;
76640;SDS011;65538;50.798;6.064;2023-12-20T19:03:58;13.07;;;4.57;;
76640;SDS011;65538;50.798;6.064;2023-12-20T19:06:24;12.65;;;4.63;;
76640;SDS011;65538;50.798;6.064;2023-12-20T19:08:49;19.40;;;6.67;;
76640;SDS011;65538;50.798;6.064;2023-12-20T19:11:15;10.82;;;4.32;;
76640;SDS011;65538;50.798;6.064;2023-12-20T19:13:41;14.35;;;4.85;;
76640;SDS011;65538;50.798;6.064;2023-12-20T19:16:06;17.00;;;5.73;;
76640;SDS011;65538;50.798;6.064;2023-12-20T19:18:31;13.07;;;3.80;;
76640;SDS011;65538;50.798;6.064;2023-12-20T19:20:57;13.82;;;4.47;;
76640;SDS011;65538;50.798;6.064;2023-12-20T19:23:23;13.20;;;4.00;;
76640;SDS011;65538;50.798;6.064;2023-12-20T19:25:48;10.30;;;4.67;;
76640;SDS011;65538;50.798;6.064;2023-12-20T19:28:14;14.43;;;4.83;;
76640;SDS011;65538;50.798;6.064;2023-12-20T19:30:39;9.97;;;3.67;;
76640;SDS011;65538;50.798;6.064;2023-12-20T19:33:04;16.97;;;4.00;;
76640;SDS011;65538;50.798;6.064;2023-12-20T19:35:29;15.67;;;3.23;;
76640;SDS011;65538;50.798;6.064;2023-12-20T19:37:55;9.97;;;3.10;;
76640;SDS011;65538;50.798;6.064;2023-12-20T19:40:20;14.40;;;4.40;;
76640;SDS011;65538;50.798;6.064;2023-12-20T19:42:45;7.23;;;3.07;;
76640;SDS011;65538;50.798;6.064;2023-12-20T19:45:10;12.47;;;4.40;;
76640;SDS011;65538;50.798;6.064;2023-12-20T19:47:37;16.38;;;4.20;;
76640;SDS011;65538;50.798;6.064;2023-12-20T19:50:03;7.97;;;3.77;;
76640;SDS011;65538;50.798;6.064;2023-12-20T19:52:28;11.85;;;3.78;;
76640;SDS011;65538;50.798;6.064;2023-12-20T19:54:53;12.50;;;3.55;;
76640;SDS011;65538;50.798;6.064;2023-12-20T19:57:19;12.70;;;3.93;;
76640;SDS011;65538;50.798;6.064;2023-12-20T19:59:44;9.03;;;3.83;;
76640;SDS011;65538;50.798;6.064;2023-12-20T20:02:09;7.40;;;3.10;;
76640;SDS011;65538;50.798;6.064;2023-12-20T20:04:34;13.17;;;3.63;;
76640;SDS011;65538;50.798;6.064;2023-12-20T20:07:00;15.48;;;2.80;;
76640;SDS011;65538;50.798;6.064;2023-12-20T20:09:25;12.20;;;3.90;;
76640;SDS011;65538;50.798;6.064;2023-12-20T20:11:50;14.23;;;3.57;;
76640;SDS011;65538;50.798;6.064;2023-12-20T20:14:16;12.93;;;4.20;;
76640;SDS011;65538;50.798;6.064;2023-12-20T20:16:41;10.47;;;2.47;;
76640;SDS011;65538;50.798;6.064;2023-12-20T20:19:08;5.50;;;2.78;;
76640;SDS011;65538;50.798;6.064;2023-12-20T20:21:34;12.23;;;4.50;;
76640;SDS011;65538;50.798;6.064;2023-12-20T20:23:59;7.87;;;2.20;;
76640;SDS011;65538;50.798;6.064;2023-12-20T20:26:24;10.93;;;4.00;;
76640;SDS011;65538;50.798;6.064;2023-12-20T20:28:49;7.80;;;2.93;;
76640;SDS011;65538;50.798;6.064;2023-12-20T20:31:15;8.68;;;3.15;;
76640;SDS011;65538;50.798;6.064;2023-12-20T20:33:40;8.30;;;2.60;;
76640;SDS011;65538;50.798;6.064;2023-12-20T20:36:05;10.53;;;2.90;;
76640;SDS011;65538;50.798;6.064;2023-12-20T20:38:32;8.10;;;2.38;;
76640;SDS011;65538;50.798;6.064;2023-12-20T20:40:57;4.60;;;2.37;;
76640;SDS011;65538;50.798;6.064;2023-12-20T20:43:23;10.80;;;3.47;;
76640;SDS011;65538;50.798;6.064;2023-12-20T20:45:48;11.60;;;2.90;;
76640;SDS011;65538;50.798;6.064;2023-12-20T20:48:13;14.80;;;3.67;;
76640;SDS011;65538;50.798;6.064;2023-12-20T20:50:39;16.15;;;4.25;;
76640;SDS011;65538;50.798;6.064;2023-12-20T20:53:04;12.97;;;3.70;;
76640;SDS011;65538;50.798;6.064;2023-12-20T20:55:29;8.47;;;3.00;;
76640;SDS011;65538;50.798;6.064;2023-12-20T20:57:54;7.63;;;2.70;;
76640;SDS011;65538;50.798;6.064;2023-12-20T21:00:20;9.10;;;3.57;;
76640;SDS011;65538;50.798;6.064;2023-12-20T21:02:45;14.13;;;3.67;;
76640;SDS011;65538;50.798;6.064;2023-12-20T21:05:10;10.20;;;3.33;;
76640;SDS011;65538;50.798;6.064;2023-12-20T21:07:35;9.57;;;2.97;;
76640;SDS011;65538;50.798;6.064;2023-12-20T21:10:00;8.40;;;2.67;;
76640;SDS011;65538;50.798;6.064;2023-12-20T21:12:26;10.83;;;3.47;;
76640;SDS011;65538;50.798;6.064;2023-12-20T21:14:53;14.70;;;3.00;;
76640;SDS011;65538;50.798;6.064;2023-12-20T21:17:18;8.93;;;3.78;;
76640;SDS011;65538;50.798;6.064;2023-12-20T21:19:43;7.73;;;3.40;;
76640;SDS011;65538;50.798;6.064;2023-12-20T21:22:08;15.27;;;3.57;;
76640;SDS011;65538;50.798;6.064;2023-12-20T21:24:33;15.13;;;4.17;;
76640;SDS011;65538;50.798;6.064;2023-12-20T21:27:00;10.30;;;3.10;;
76640;SDS011;65538;50.798;6.064;2023-12-20T21:29:25;9.27;;;3.93;;
76640;SDS011;65538;50.798;6.064;2023-12-20T21:31:50;9.70;;;3.67;;
76640;SDS011;65538;50.798;6.064;2023-12-20T21:34:16;12.27;;;4.97;;
76640;SDS011;65538;50.798;6.064;2023-12-20T21:36:41;13.77;;;3.80;;
76640;SDS011;65538;50.798;6.064;2023-12-20T21:39:07;12.75;;;4.47;;
76640;SDS011;65538;50.798;6.064;2023-12-20T21:41:33;8.70;;;3.43;;
76640;SDS011;65538;50.798;6.064;2023-12-20T21:43:58;11.80;;;4.73;;
76640;SDS011;65538;50.798;6.064;2023-12-20T21:46:23;11.47;;;4.43;;
76640;SDS011;65538;50.798;6.064;2023-12-20T21:48:50;11.57;;;4.68;;
76640;SDS011;65538;50.798;6.064;2023-12-20T21:51:16;10.43;;;4.07;;
76640;SDS011;65538;50.798;6.064;2023-12-20T21:53:42;9.00;;;3.58;;
76640;SDS011;65538;50.798;6.064;2023-12-20T21:56:07;10.90;;;4.63;;
76640;SDS011;65538;50.798;6.064;2023-12-20T21:58:35;12.07;;;4.13;;
76640;SDS011;65538;50.798;6.064;2023-12-20T22:01:00;8.43;;;3.70;;
76640;SDS011;65538;50.798;6.064;2023-12-20T22:03:25;14.97;;;4.43;;